Time;durP1;ratioP1;P1;durP2;ratioP2;P2;SDS_P1;SDS_P2;PMS_P1;PMS_P2;Temp;Humidity;BMP_temperature;BMP_pressure;BME280_temperature;BME280_humidity;BME280_pressure;Samples;Min_cycle;Max_cycle;Signal;HPM_P1;HPM_P2
2023/05/15 00:01:53;;;;;;;;;;;;;;;11.34;100.00;101468.34;5001274;28;19925;-69
2023/05/15 00:04:19;;;;;;;;;;;;;;;11.42;100.00;101472.31;5004395;28;19943;-70
2023/05/15 00:06:44;;;;;;;;;;;;;;;11.34;100.00;101462.97;4998595;28;19948;-70
2023/05/15 00:09:09;;;;;;;;;;;;;;;11.38;100.00;101461.78;5001054;28;20361;-70
2023/05/15 00:11:35;;;;;;;;;;;;;;;11.33;100.00;101458.56;5010301;28;20359;-70
2023/05/15 00:14:00;;;;;;;;;;;;;;;11.37;100.00;101467.28;4999066;28;19972;-70
2023/05/15 00:16:25;;;;;;;;;;;;;;;11.33;100.00;101452.34;5004731;28;20024;-70
2023/05/15 00:18:50;;;;;;;;;;;;;;;11.34;100.00;101459.44;4998094;28;19928;-70
2023/05/15 00:21:16;;;;;;;;;;;;;;;11.32;100.00;101454.16;4999967;28;19960;-70
2023/05/15 00:23:41;;;;;;;;;;;;;;;11.33;100.00;101463.09;4981331;28;20028;-69
2023/05/15 00:26:06;;;;;;;;;;;;;;;11.29;100.00;101454.38;5014719;28;19927;-70
2023/05/15 00:28:31;;;;;;;;;;;;;;;11.32;100.00;101459.53;4998779;28;20368;-70
2023/05/15 00:30:56;;;;;;;;;;;;;;;11.35;100.00;101453.09;4999888;28;20423;-70
2023/05/15 00:33:22;;;;;;;;;;;;;;;11.29;100.00;101443.63;4999509;28;20410;-70
2023/05/15 00:35:47;;;;;;;;;;;;;;;11.29;100.00;101442.75;5004396;28;20351;-69
2023/05/15 00:38:12;;;;;;;;;;;;;;;11.22;100.00;101445.88;4999819;28;20375;-69
2023/05/15 00:40:37;;;;;;;;;;;;;;;11.24;100.00;101443.94;4991242;28;20012;-70
2023/05/15 00:43:03;;;;;;;;;;;;;;;11.24;100.00;101440.41;5010202;28;19928;-69
2023/05/15 00:45:28;;;;;;;;;;;;;;;11.14;100.00;101433.97;5017784;28;19975;-70
2023/05/15 00:47:53;;;;;;;;;;;;;;;11.05;100.00;101441.69;5014748;28;20355;-70
2023/05/15 00:50:19;;;;;;;;;;;;;;;11.13;100.00;101434.94;5013305;28;19925;-70
2023/05/15 00:52:44;;;;;;;;;;;;;;;11.03;100.00;101435.56;4996960;28;19921;-69
2023/05/15 00:55:09;;;;;;;;;;;;;;;11.00;100.00;101443.00;5016595;28;20419;-69
2023/05/15 00:57:35;;;;;;;;;;;;;;;10.83;100.00;101446.84;5014438;28;20080;-70
2023/05/15 01:00:01;;;;;;;;;;;;;;;10.79;100.00;101452.44;4995126;28;20378;-70
2023/05/15 01:02:26;;;;;;;;;;;;;;;10.62;100.00;101437.47;4993759;28;19948;-70
2023/05/15 01:04:51;;;;;;;;;;;;;;;10.64;100.00;101432.88;4996780;28;20212;-69
2023/05/15 01:07:16;;;;;;;;;;;;;;;10.60;100.00;101430.50;5000341;28;19925;-70
2023/05/15 01:09:45;;;;;;;;;;;;;;;10.57;100.00;101430.72;4999944;28;20251;-70
2023/05/15 01:12:10;;;;;;;;;;;;;;;10.58;100.00;101440.50;4986894;28;19944;-70
2023/05/15 01:14:35;;;;;;;;;;;;;;;10.56;100.00;101434.38;4981893;28;19921;-70
2023/05/15 01:17:01;;;;;;;;;;;;;;;10.50;100.00;101436.50;4988177;28;19967;-69
2023/05/15 01:19:26;;;;;;;;;;;;;;;10.56;100.00;101437.94;4996245;28;20004;-69
2023/05/15 01:21:57;;;;;;;;;;;;;;;10.62;100.00;101439.31;4991166;28;19931;-70
2023/05/15 01:24:32;;;;;;;;;;;;;;;10.68;100.00;101433.53;5009729;28;19925;-70
2023/05/15 01:27:15;;;;;;;;;;;;;;;10.61;100.00;101435.75;5005701;28;20175;-70
2023/05/15 01:30:03;;;;;;;;;;;;;;;10.62;100.00;101428.56;5011465;28;20367;-70
2023/05/15 01:32:31;;;;;;;;;;;;;;;10.64;100.00;101426.66;4992843;28;20347;-70
2023/05/15 01:35:12;;;;;;;;;;;;;;;10.61;100.00;101433.06;4988660;28;19925;-70
2023/05/15 01:37:41;;;;;;;;;;;;;;;10.64;100.00;101424.81;4991849;28;20327;-70
2023/05/15 01:40:08;;;;;;;;;;;;;;;10.65;100.00;101425.69;4988235;28;20225;-70
2023/05/15 01:42:33;;;;;;;;;;;;;;;10.64;100.00;101419.44;4981879;28;20200;-70
2023/05/15 01:45:00;;;;;;;;;;;;;;;10.59;100.00;101432.34;4997839;28;20240;-70
2023/05/15 01:47:28;;;;;;;;;;;;;;;10.55;100.00;101425.47;4996894;28;19925;-70
2023/05/15 01:49:53;;;;;;;;;;;;;;;10.58;100.00;101413.63;5000964;28;20545;-70
2023/05/15 01:52:45;;;;;;;;;;;;;;;10.54;100.00;101407.63;4995869;28;20047;-70
2023/05/15 01:55:10;;;;;;;;;;;;;;;10.53;100.00;101421.13;4992528;28;20226;-70
2023/05/15 01:57:35;;;;;;;;;;;;;;;10.55;100.00;101422.78;4990484;28;19935;-69
2023/05/15 02:00:00;;;;;;;;;;;;;;;10.52;100.00;101414.94;4984144;28;20373;-70
2023/05/15 02:02:26;;;;;;;;;;;;;;;10.56;100.00;101415.56;4987210;28;19962;-70
2023/05/15 02:04:51;;;;;;;;;;;;;;;10.53;100.00;101419.34;4972117;28;19984;-69
2023/05/15 02:07:16;;;;;;;;;;;;;;;10.44;100.00;101418.16;4990691;28;19925;-70
2023/05/15 02:09:42;;;;;;;;;;;;;;;10.44;100.00;101409.22;4975039;28;19968;-70
2023/05/15 02:12:07;;;;;;;;;;;;;;;10.44;100.00;101415.47;4970268;28;19956;-70
2023/05/15 02:14:32;;;;;;;;;;;;;;;10.35;100.00;101419.56;4986085;28;20383;-70
2023/05/15 02:16:57;;;;;;;;;;;;;;;10.28;100.00;101417.41;4998763;28;20455;-70
2023/05/15 02:19:23;;;;;;;;;;;;;;;10.22;100.00;101418.69;4986850;28;20379;-70
2023/05/15 02:21:48;;;;;;;;;;;;;;;10.17;100.00;101418.13;4986369;28;20376;-70
2023/05/15 02:24:14;;;;;;;;;;;;;;;10.16;100.00;101409.25;4987374;28;20326;-70
2023/05/15 02:26:51;;;;;;;;;;;;;;;10.16;100.00;101411.91;4996766;28;20389;-70
2023/05/15 02:29:16;;;;;;;;;;;;;;;10.19;100.00;101408.16;5002723;28;20005;-70
2023/05/15 02:31:51;;;;;;;;;;;;;;;10.19;100.00;101402.78;4989778;28;20659;-70
2023/05/15 02:34:17;;;;;;;;;;;;;;;10.18;100.00;101401.06;4982875;28;20360;-70
2023/05/15 02:36:43;;;;;;;;;;;;;;;10.21;100.00;101408.91;4990475;28;19955;-70
2023/05/15 02:39:09;;;;;;;;;;;;;;;10.16;100.00;101405.69;5021038;28;19925;-70
2023/05/15 02:41:34;;;;;;;;;;;;;;;10.02;100.00;101409.28;4985878;28;20022;-70
2023/05/15 02:43:59;;;;;;;;;;;;;;;10.05;100.00;101404.59;4995469;28;20386;-70
2023/05/15 02:46:24;;;;;;;;;;;;;;;10.04;100.00;101405.56;5011964;28;20383;-69
2023/05/15 02:48:49;;;;;;;;;;;;;;;9.95;100.00;101411.53;5000726;28;20290;-69
2023/05/15 02:51:15;;;;;;;;;;;;;;;9.87;100.00;101406.66;5003148;28;20494;-69
2023/05/15 02:53:40;;;;;;;;;;;;;;;9.80;100.00;101412.53;5001672;28;20379;-70
2023/05/15 02:56:06;;;;;;;;;;;;;;;9.75;100.00;101410.13;5014292;28;20379;-69
2023/05/15 02:58:31;;;;;;;;;;;;;;;9.72;100.00;101416.56;5000206;28;19944;-70
2023/05/15 03:00:56;;;;;;;;;;;;;;;9.72;100.00;101413.03;4984574;28;20520;-70
2023/05/15 03:03:21;;;;;;;;;;;;;;;9.62;100.00;101417.28;4994038;28;20291;-70
2023/05/15 03:05:46;;;;;;;;;;;;;;;9.58;100.00;101409.44;4996668;28;19928;-70
2023/05/15 03:08:12;;;;;;;;;;;;;;;9.59;100.00;101412.94;5008436;28;20023;-71
2023/05/15 03:10:37;;;;;;;;;;;;;;;9.57;100.00;101410.38;4999205;28;19927;-71
2023/05/15 03:13:02;;;;;;;;;;;;;;;9.64;100.00;101418.03;4984242;28;20052;-69
2023/05/15 03:15:27;;;;;;;;;;;;;;;9.71;100.00;101412.16;4987238;28;19925;-69
2023/05/15 03:17:53;;;;;;;;;;;;;;;9.72;100.00;101413.03;4985734;28;19924;-69
2023/05/15 03:20:18;;;;;;;;;;;;;;;9.77;100.00;101413.59;4988502;28;19975;-70
2023/05/15 03:22:43;;;;;;;;;;;;;;;9.81;100.00;101411.56;4983871;28;19975;-70
2023/05/15 03:25:09;;;;;;;;;;;;;;;9.92;100.00;101408.19;4972481;28;19972;-69
2023/05/15 03:27:34;;;;;;;;;;;;;;;9.95;100.00;101414.19;5001158;28;20338;-70
2023/05/15 03:30:00;;;;;;;;;;;;;;;9.96;100.00;101410.56;5003962;28;19925;-70
2023/05/15 03:32:25;;;;;;;;;;;;;;;10.02;100.00;101409.28;5000029;28;19940;-70
2023/05/15 03:34:50;;;;;;;;;;;;;;;10.04;100.00;101402.00;4996021;28;19927;-70
2023/05/15 03:37:15;;;;;;;;;;;;;;;10.04;100.00;101399.31;5001091;28;19928;-70
2023/05/15 03:39:41;;;;;;;;;;;;;;;10.12;100.00;101409.53;5003505;28;19925;-70
2023/05/15 03:42:06;;;;;;;;;;;;;;;10.13;100.00;101411.25;4999971;28;19921;-71
2023/05/15 03:44:32;;;;;;;;;;;;;;;10.16;100.00;101409.25;5006416;28;19921;-69
2023/05/15 03:46:57;;;;;;;;;;;;;;;10.18;100.00;101404.63;4971920;28;19925;-69
2023/05/15 03:49:22;;;;;;;;;;;;;;;10.19;100.00;101405.47;5002505;28;20010;-70
2023/05/15 03:51:47;;;;;;;;;;;;;;;10.27;100.00;101407.63;4998598;28;20258;-70
2023/05/15 03:54:12;;;;;;;;;;;;;;;10.29;100.00;101400.34;4997628;28;19968;-70
2023/05/15 03:56:38;;;;;;;;;;;;;;;10.28;100.00;101412.91;5002891;28;19964;-70
2023/05/15 03:59:03;;;;;;;;;;;;;;;10.40;100.00;101419.31;4997653;28;19925;-70
2023/05/15 04:01:28;;;;;;;;;;;;;;;10.42;100.00;101416.50;4984314;28;20430;-70
2023/05/15 04:03:53;;;;;;;;;;;;;;;10.41;100.00;101404.03;4999282;28;20035;-70
2023/05/15 04:06:19;;;;;;;;;;;;;;;10.47;100.00;101403.63;4986511;28;20509;-70
2023/05/15 04:08:44;;;;;;;;;;;;;;;10.43;100.00;101397.63;4996396;28;20385;-70
2023/05/15 04:11:10;;;;;;;;;;;;;;;10.39;100.00;101398.81;4985567;28;19963;-70
2023/05/15 04:13:36;;;;;;;;;;;;;;;10.36;100.00;101399.81;4998547;28;19924;-70
2023/05/15 04:16:01;;;;;;;;;;;;;;;10.35;100.00;101398.09;4998532;28;19995;-69
2023/05/15 04:18:26;;;;;;;;;;;;;;;10.42;100.00;101392.34;4999458;28;19921;-70
2023/05/15 04:20:52;;;;;;;;;;;;;;;10.46;100.00;101388.50;5001103;28;20044;-70
2023/05/15 04:23:17;;;;;;;;;;;;;;;10.48;100.00;101390.09;4987863;28;19927;-70
2023/05/15 04:25:45;;;;;;;;;;;;;;;10.54;100.00;101386.16;4986761;28;19933;-70
2023/05/15 04:28:10;;;;;;;;;;;;;;;10.59;100.00;101391.19;4984068;28;20497;-70
2023/05/15 04:30:36;;;;;;;;;;;;;;;10.52;100.00;101382.72;5011930;28;19936;-70
2023/05/15 04:33:01;;;;;;;;;;;;;;;10.55;100.00;101378.94;4984342;28;20107;-70
2023/05/15 04:35:26;;;;;;;;;;;;;;;10.50;100.00;101379.28;4971235;28;20115;-70
2023/05/15 04:37:51;;;;;;;;;;;;;;;10.50;100.00;101390.84;5007833;28;19966;-70
2023/05/15 04:40:17;;;;;;;;;;;;;;;10.54;100.00;101393.31;5000222;28;19979;-70
2023/05/15 04:42:42;;;;;;;;;;;;;;;10.53;100.00;101391.59;5005940;28;20467;-70
2023/05/15 04:45:08;;;;;;;;;;;;;;;10.43;100.00;101405.69;4985770;28;19921;-70
2023/05/15 04:47:33;;;;;;;;;;;;;;;10.49;100.00;101407.91;4996348;28;19972;-70
2023/05/15 04:49:58;;;;;;;;;;;;;;;10.54;100.00;101404.94;4975754;28;21129;-70
2023/05/15 04:52:23;;;;;;;;;;;;;;;10.36;100.00;101407.88;4970722;28;20424;-70
2023/05/15 04:54:49;;;;;;;;;;;;;;;10.44;100.00;101422.63;5003744;28;20779;-70
2023/05/15 04:57:15;;;;;;;;;;;;;;;10.28;100.00;101422.78;5001791;28;20326;-70
2023/05/15 04:59:41;;;;;;;;;;;;;;;10.24;100.00;101432.00;4998963;28;20048;-70
2023/05/15 05:02:07;;;;;;;;;;;;;;;10.01;100.00;101429.03;4999647;28;19996;-70
2023/05/15 05:04:33;;;;;;;;;;;;;;;10.17;100.00;101437.78;4999222;28;20193;-70
2023/05/15 05:06:58;;;;;;;;;;;;;;;10.12;100.00;101441.72;4991494;28;19963;-72
2023/05/15 05:09:23;;;;;;;;;;;;;;;10.13;100.00;101443.44;4973548;28;19968;-70
2023/05/15 05:11:48;;;;;;;;;;;;;;;10.21;100.00;101449.16;4989560;28;19920;-70
2023/05/15 05:14:14;;;;;;;;;;;;;;;10.15;100.00;101441.53;4999529;28;19976;-70
2023/05/15 05:16:39;;;;;;;;;;;;;;;10.13;100.00;101447.00;5000032;28;19924;-70
2023/05/15 05:19:05;;;;;;;;;;;;;;;10.27;100.00;101446.09;5001535;28;19929;-69
2023/05/15 05:21:31;;;;;;;;;;;;;;;10.30;100.00;101450.38;5006249;28;20019;-70
2023/05/15 05:23:56;;;;;;;;;;;;;;;10.38;100.00;101447.16;4982588;28;19991;-70
2023/05/15 05:26:21;;;;;;;;;;;;;;;10.44;100.00;101441.44;5001754;28;19979;-69
2023/05/15 05:28:47;;;;;;;;;;;;;;;10.43;100.00;101445.94;5012355;28;20023;-69
2023/05/15 05:31:12;;;;;;;;;;;;;;;10.63;100.00;101443.72;5002427;28;19952;-70
2023/05/15 05:33:37;;;;;;;;;;;;;;;10.72;100.00;101442.22;4999561;28;19943;-69
2023/05/15 05:36:02;;;;;;;;;;;;;;;10.63;100.00;101451.78;5003834;28;19962;-70
2023/05/15 05:38:28;;;;;;;;;;;;;;;10.50;100.00;101451.75;5004756;28;19964;-69
2023/05/15 05:40:53;;;;;;;;;;;;;;;10.28;100.00;101461.22;4988801;28;19972;-70
2023/05/15 05:43:19;;;;;;;;;;;;;;;10.52;100.00;101463.25;5005815;28;19995;-70
2023/05/15 05:45:44;;;;;;;;;;;;;;;10.55;100.00;101465.75;4989985;28;20386;-70
2023/05/15 05:48:10;;;;;;;;;;;;;;;10.48;100.00;101469.78;4990100;28;19925;-70
2023/05/15 05:50:35;;;;;;;;;;;;;;;10.46;100.00;101471.72;4997469;28;19928;-69
2023/05/15 05:53:00;;;;;;;;;;;;;;;10.34;100.00;101468.84;5000070;28;19925;-70
2023/05/15 05:55:25;;;;;;;;;;;;;;;10.34;100.00;101466.16;5008158;28;19999;-70
2023/05/15 05:57:51;;;;;;;;;;;;;;;10.35;100.00;101461.66;5004208;28;19960;-70
2023/05/15 06:00:16;;;;;;;;;;;;;;;10.26;100.00;101462.28;4987923;28;20016;-70
2023/05/15 06:02:42;;;;;;;;;;;;;;;10.33;100.00;101455.53;5001138;28;19921;-69
2023/05/15 06:05:07;;;;;;;;;;;;;;;10.33;100.00;101458.22;4986287;28;19925;-69
2023/05/15 06:07:33;;;;;;;;;;;;;;;10.26;100.00;101448.84;4987371;28;19968;-70
2023/05/15 06:09:58;;;;;;;;;;;;;;;10.40;100.00;101454.22;4986045;28;19935;-70
2023/05/15 06:12:23;;;;;;;;;;;;;;;10.50;100.00;101452.59;5003165;28;19980;-70
2023/05/15 06:14:48;;;;;;;;;;;;;;;10.55;100.00;101449.63;5003881;28;19968;-70
2023/05/15 06:17:14;;;;;;;;;;;;;;;10.59;100.00;101450.25;5001698;28;19927;-70
2023/05/15 06:19:39;;;;;;;;;;;;;;;10.78;100.00;101458.78;4986224;28;20403;-70
2023/05/15 06:22:04;;;;;;;;;;;;;;;10.86;100.00;101457.41;4986862;28;19917;-69
2023/05/15 06:24:30;;;;;;;;;;;;;;;10.96;100.00;101458.47;4984975;28;20545;-69
2023/05/15 06:26:55;;;;;;;;;;;;;;;11.04;100.00;101456.09;5016680;28;20037;-70
2023/05/15 06:29:20;;;;;;;;;;;;;;;11.37;100.00;101460.06;5018267;28;19972;-69
2023/05/15 06:31:45;;;;;;;;;;;;;;;11.67;100.00;101457.94;4977184;28;19967;-69
2023/05/15 06:34:10;;;;;;;;;;;;;;;12.01;100.00;101458.22;5023916;28;20033;-70
2023/05/15 06:36:36;;;;;;;;;;;;;;;12.23;100.00;101454.78;5013953;28;19921;-69
2023/05/15 06:39:01;;;;;;;;;;;;;;;12.35;100.00;101446.72;5012086;28;19921;-69
2023/05/15 06:41:26;;;;;;;;;;;;;;;12.44;100.00;101441.53;5018177;28;20500;-70
2023/05/15 06:43:52;;;;;;;;;;;;;;;12.60;100.00;101451.97;4990867;28;20367;-69
2023/05/15 06:46:17;;;;;;;;;;;;;;;12.42;100.00;101448.00;5012575;28;19921;-70
2023/05/15 06:48:43;;;;;;;;;;;;;;;12.27;100.00;101448.19;5013340;28;19925;-70
2023/05/15 06:51:08;;;;;;;;;;;;;;;12.19;100.00;101444.34;5010373;28;19931;-70
2023/05/15 06:53:33;;;;;;;;;;;;;;;12.23;100.00;101440.44;4993373;28;19990;-70
2023/05/15 06:55:59;;;;;;;;;;;;;;;12.29;100.00;101440.88;5010586;28;19925;-69
2023/05/15 06:58:24;;;;;;;;;;;;;;;12.22;100.00;101438.72;5010939;28;19933;-69
2023/05/15 07:00:50;;;;;;;;;;;;;;;12.05;100.00;101440.84;5012053;28;19921;-70
2023/05/15 07:03:15;;;;;;;;;;;;;;;12.15;100.00;101446.41;5008201;28;19987;-69
2023/05/15 07:05:41;;;;;;;;;;;;;;;12.41;100.00;101439.06;5008774;28;19921;-69
2023/05/15 07:08:06;;;;;;;;;;;;;;;12.66;100.00;101434.50;5012019;28;19937;-69
2023/05/15 07:10:31;;;;;;;;;;;;;;;12.74;100.00;101434.72;5003555;28;19921;-70
2023/05/15 07:12:56;;;;;;;;;;;;;;;12.95;100.00;101431.38;5011536;28;19967;-70
2023/05/15 07:15:22;;;;;;;;;;;;;;;13.11;100.00;101443.63;5014521;28;19925;-69
2023/05/15 07:17:47;;;;;;;;;;;;;;;13.28;100.00;101432.34;5008852;28;19921;-69
2023/05/15 07:20:12;;;;;;;;;;;;;;;13.35;100.00;101430.03;4993131;28;19987;-70
2023/05/15 07:22:38;;;;;;;;;;;;;;;13.49;100.00;101429.78;4994482;28;19925;-70
2023/05/15 07:25:03;;;;;;;;;;;;;;;13.59;100.00;101431.75;5007635;28;20032;-70
2023/05/15 07:27:28;;;;;;;;;;;;;;;13.68;100.00;101436.38;5011170;28;19925;-69
2023/05/15 07:29:54;;;;;;;;;;;;;;;13.92;100.00;101430.81;5010348;28;19932;-69
2023/05/15 07:32:19;;;;;;;;;;;;;;;13.79;100.00;101439.06;4989904;28;20032;-70
2023/05/15 07:34:44;;;;;;;;;;;;;;;13.73;100.00;101431.47;4995977;28;19921;-70
2023/05/15 07:37:10;;;;;;;;;;;;;;;13.80;100.00;101431.81;5011933;28;20383;-68
2023/05/15 07:39:35;;;;;;;;;;;;;;;13.88;100.00;101433.91;5009246;28;19917;-68
2023/05/15 07:42:00;;;;;;;;;;;;;;;13.79;100.00;101435.50;5009845;28;19921;-68
2023/05/15 07:44:25;;;;;;;;;;;;;;;13.85;100.00;101426.06;5008686;28;19965;-68
2023/05/15 07:46:51;;;;;;;;;;;;;;;13.57;100.00;101431.03;5007842;28;19952;-68
2023/05/15 07:49:16;;;;;;;;;;;;;;;13.76;100.00;101431.22;5016419;28;19995;-76
2023/05/15 07:51:41;;;;;;;;;;;;;;;14.16;100.00;101427.06;5001994;28;19925;-78
2023/05/15 07:54:06;;;;;;;;;;;;;;;14.27;100.00;101428.00;4977233;28;19921;-78
2023/05/15 07:56:32;;;;;;;;;;;;;;;14.42;100.00;101424.00;4991985;28;19924;-71
2023/05/15 07:58:57;;;;;;;;;;;;;;;14.66;100.00;101422.88;5004026;28;20113;-75
2023/05/15 08:01:22;;;;;;;;;;;;;;;14.90;100.00;101419.06;5001194;28;20433;-74
2023/05/15 08:03:47;;;;;;;;;;;;;;;15.00;100.00;101420.81;5019969;28;19921;-74
2023/05/15 08:06:13;;;;;;;;;;;;;;;15.12;100.00;101423.47;4975818;28;19967;-75
2023/05/15 08:08:38;;;;;;;;;;;;;;;15.05;100.00;101416.88;5008327;28;19936;-74
2023/05/15 08:11:03;;;;;;;;;;;;;;;15.05;100.00;101422.28;4978414;28;19924;-75
2023/05/15 08:13:28;;;;;;;;;;;;;;;15.18;100.00;101417.53;4993984;28;20434;-76
2023/05/15 08:15:54;;;;;;;;;;;;;;;15.26;100.00;101422.25;5008981;28;19921;-75
2023/05/15 08:18:19;;;;;;;;;;;;;;;15.34;100.00;101419.72;4982883;28;19921;-76
2023/05/15 08:20:45;;;;;;;;;;;;;;;15.41;100.00;101418.16;4980176;28;20307;-69
2023/05/15 08:23:10;;;;;;;;;;;;;;;15.42;100.00;101419.88;4992594;28;20011;-69
2023/05/15 08:25:35;;;;;;;;;;;;;;;15.58;100.00;101410.38;4990546;28;19920;-69
2023/05/15 08:28:01;;;;;;;;;;;;;;;15.66;100.00;101412.41;5011552;28;19932;-69
2023/05/15 08:30:26;;;;;;;;;;;;;;;15.96;100.00;101407.91;4991935;28;20029;-69
2023/05/15 08:32:51;;;;;;;;;;;;;;;16.26;98.34;101414.22;5004770;28;20382;-69
2023/05/15 08:35:17;;;;;;;;;;;;;;;16.33;89.20;101416.19;4996778;28;20392;-69
2023/05/15 08:37:42;;;;;;;;;;;;;;;16.45;96.06;101411.47;4994256;28;19936;-69
2023/05/15 08:40:08;;;;;;;;;;;;;;;16.30;93.53;101411.06;5009772;28;20117;-69
2023/05/15 08:42:36;;;;;;;;;;;;;;;16.93;98.02;101408.81;4993668;28;19921;-69
2023/05/15 08:45:01;;;;;;;;;;;;;;;17.00;90.97;101407.25;5008450;28;19932;-69
2023/05/15 08:47:27;;;;;;;;;;;;;;;16.84;93.21;101407.84;5015427;28;19951;-69
2023/05/15 08:50:05;;;;;;;;;;;;;;;17.22;92.10;101407.88;5001886;28;20445;-68
2023/05/15 08:52:33;;;;;;;;;;;;;;;17.52;86.31;101408.59;5011883;28;20283;-69
2023/05/15 08:55:00;;;;;;;;;;;;;;;17.65;81.86;101400.09;5003667;28;19952;-69
2023/05/15 08:57:26;;;;;;;;;;;;;;;17.89;83.79;101404.06;5014782;28;20181;-67
2023/05/15 08:59:51;;;;;;;;;;;;;;;17.68;83.65;101392.47;5008093;28;19924;-69
2023/05/15 09:02:17;;;;;;;;;;;;;;;17.70;78.72;101397.78;4998682;28;19921;-69
2023/05/15 09:04:42;;;;;;;;;;;;;;;17.54;84.38;101396.56;4995756;28;20023;-69
2023/05/15 09:07:08;;;;;;;;;;;;;;;17.48;85.90;101399.03;5015205;28;20436;-69
2023/05/15 09:09:34;;;;;;;;;;;;;;;17.41;84.94;101403.34;4995618;28;20011;-69
2023/05/15 09:12:00;;;;;;;;;;;;;;;17.72;86.30;101403.91;4979172;28;19928;-69
2023/05/15 09:14:25;;;;;;;;;;;;;;;17.67;78.21;101400.78;5005299;28;20315;-69
2023/05/15 09:16:52;;;;;;;;;;;;;;;17.62;85.76;101400.38;5015775;28;19921;-69
2023/05/15 09:19:18;;;;;;;;;;;;;;;17.74;84.81;101399.19;4995170;28;19924;-69
2023/05/15 09:21:43;;;;;;;;;;;;;;;17.64;80.93;101407.34;5011880;28;19921;-69
2023/05/15 09:24:14;;;;;;;;;;;;;;;17.79;85.92;101404.97;5012084;28;19932;-68
2023/05/15 09:26:40;;;;;;;;;;;;;;;17.98;83.57;101400.44;5009703;28;19921;-69
2023/05/15 09:29:05;;;;;;;;;;;;;;;18.20;81.20;101392.84;4997490;28;20272;-69
2023/05/15 09:31:31;;;;;;;;;;;;;;;18.13;78.86;101396.19;5007906;28;19928;-70
2023/05/15 09:34:00;;;;;;;;;;;;;;;18.24;84.24;101394.25;5010258;28;19928;-70
2023/05/15 09:36:25;;;;;;;;;;;;;;;18.27;80.17;101391.22;5013568;28;20394;-70
2023/05/15 09:38:51;;;;;;;;;;;;;;;18.67;84.91;101389.81;4992976;28;19944;-69
2023/05/15 09:41:16;;;;;;;;;;;;;;;18.61;84.31;101389.59;4992089;28;19925;-69
2023/05/15 09:43:41;;;;;;;;;;;;;;;18.47;86.06;101391.03;4996191;28;19921;-70
2023/05/15 09:46:11;;;;;;;;;;;;;;;18.55;88.92;101381.06;5008095;28;19921;-69
2023/05/15 09:48:37;;;;;;;;;;;;;;;18.28;85.02;101401.06;5010591;28;19932;-70
2023/05/15 09:51:06;;;;;;;;;;;;;;;18.12;85.81;101391.75;5004495;28;19921;-70
2023/05/15 09:53:31;;;;;;;;;;;;;;;18.21;87.99;101392.69;5004998;28;19920;-70
2023/05/15 09:55:56;;;;;;;;;;;;;;;18.56;85.57;101384.63;5012210;28;19928;-69
2023/05/15 09:58:22;;;;;;;;;;;;;;;18.73;82.30;101391.03;5004793;28;20290;-69
2023/05/15 10:00:47;;;;;;;;;;;;;;;18.74;75.64;101388.16;5009827;28;20686;-69
2023/05/15 10:03:13;;;;;;;;;;;;;;;18.91;72.03;101392.84;5007032;28;19943;-69
2023/05/15 10:05:38;;;;;;;;;;;;;;;19.06;77.74;101388.53;5011455;28;19925;-69
2023/05/15 10:08:03;;;;;;;;;;;;;;;19.18;70.15;101398.13;5012087;28;20325;-71
2023/05/15 10:10:29;;;;;;;;;;;;;;;19.00;71.39;101394.63;5012608;28;20410;-69
2023/05/15 10:12:55;;;;;;;;;;;;;;;18.87;72.78;101389.59;4992283;28;21794;-69
2023/05/15 10:15:20;;;;;;;;;;;;;;;19.10;74.32;101398.09;5014289;28;20481;-68
2023/05/15 10:17:46;;;;;;;;;;;;;;;19.14;72.21;101409.50;5013646;28;20113;-70
2023/05/15 10:20:11;;;;;;;;;;;;;;;19.22;71.27;101398.66;4997813;28;20502;-69
2023/05/15 10:22:37;;;;;;;;;;;;;;;19.21;71.58;101406.97;5001284;28;19940;-69
2023/05/15 10:25:06;;;;;;;;;;;;;;;19.09;75.71;101407.25;5011890;28;19932;-69
2023/05/15 10:27:31;;;;;;;;;;;;;;;19.19;78.38;101415.31;5010803;28;19936;-69
2023/05/15 10:29:56;;;;;;;;;;;;;;;19.06;78.88;101412.19;5000162;28;19921;-69
2023/05/15 10:32:22;;;;;;;;;;;;;;;19.24;79.21;101406.66;5013785;28;19960;-69
2023/05/15 10:34:47;;;;;;;;;;;;;;;19.21;84.09;101404.25;5021065;28;20338;-70
2023/05/15 10:37:12;;;;;;;;;;;;;;;19.07;79.59;101408.47;5023011;28;19917;-69
2023/05/15 10:39:39;;;;;;;;;;;;;;;18.95;82.03;101406.00;5020920;28;19917;-69
2023/05/15 10:42:05;;;;;;;;;;;;;;;19.16;82.28;101411.06;5021209;28;20291;-68
2023/05/15 10:44:30;;;;;;;;;;;;;;;18.76;79.81;101406.19;4998636;28;19928;-68
2023/05/15 10:46:55;;;;;;;;;;;;;;;18.75;83.44;101410.75;5011981;28;19990;-70
2023/05/15 10:49:21;;;;;;;;;;;;;;;18.82;85.39;101403.69;4993715;28;19991;-68
2023/05/15 10:51:46;;;;;;;;;;;;;;;18.42;80.67;101408.66;4994460;28;19920;-68
2023/05/15 10:54:11;;;;;;;;;;;;;;;18.00;86.44;101406.59;4990717;28;20016;-67
2023/05/15 10:56:38;;;;;;;;;;;;;;;17.68;87.52;101405.22;5002367;28;20508;-69
2023/05/15 10:59:04;;;;;;;;;;;;;;;17.77;87.20;101398.84;4992461;28;19921;-69
2023/05/15 11:01:31;;;;;;;;;;;;;;;17.75;90.68;101408.16;5012064;28;20015;-69
2023/05/15 11:04:09;;;;;;;;;;;;;;;18.23;90.18;101400.69;5006892;28;20690;-68
2023/05/15 11:06:35;;;;;;;;;;;;;;;18.25;89.45;101399.50;4993147;28;19932;-68
2023/05/15 11:09:19;;;;;;;;;;;;;;;18.26;88.42;101412.09;5013152;28;20291;-70
2023/05/15 11:11:51;;;;;;;;;;;;;;;17.93;86.84;101410.91;5015808;28;19925;-69
2023/05/15 11:14:16;;;;;;;;;;;;;;;17.43;93.22;101407.66;5009960;28;19982;-69
2023/05/15 11:16:53;;;;;;;;;;;;;;;17.62;93.22;101412.09;5007455;28;19921;-70
2023/05/15 11:19:22;;;;;;;;;;;;;;;17.52;94.14;101412.16;5008265;28;19928;-69
2023/05/15 11:21:47;;;;;;;;;;;;;;;17.33;94.90;101418.56;4995006;28;19921;-69
2023/05/15 11:24:12;;;;;;;;;;;;;;;17.28;96.77;101417.28;4995249;28;20523;-69
2023/05/15 11:26:41;;;;;;;;;;;;;;;17.44;97.42;101414.78;5006859;28;20492;-68
2023/05/15 11:29:16;;;;;;;;;;;;;;;17.43;96.51;101417.63;4997122;28;19925;-68
2023/05/15 11:31:42;;;;;;;;;;;;;;;16.67;100.00;101408.59;5011584;28;20020;-68
2023/05/15 11:34:07;;;;;;;;;;;;;;;17.09;100.00;101421.78;4984762;28;20377;-68
2023/05/15 11:36:32;;;;;;;;;;;;;;;17.09;100.00;101406.34;5008681;28;20350;-68
2023/05/15 11:38:57;;;;;;;;;;;;;;;17.20;100.00;101413.47;4996623;28;20271;-69
2023/05/15 11:41:28;;;;;;;;;;;;;;;17.09;100.00;101409.06;5008355;28;20363;-70
2023/05/15 11:43:54;;;;;;;;;;;;;;;17.05;100.00;101414.94;4990402;28;19925;-69
2023/05/15 11:46:19;;;;;;;;;;;;;;;17.11;100.00;101408.06;4993700;28;20217;-69
2023/05/15 11:48:47;;;;;;;;;;;;;;;17.19;100.00;101409.03;4996149;28;20031;-69
2023/05/15 11:51:23;;;;;;;;;;;;;;;16.96;97.40;101408.53;5010673;28;20386;-69
2023/05/15 11:53:49;;;;;;;;;;;;;;;16.78;100.00;101403.88;5008444;28;19975;-69
2023/05/15 11:56:22;;;;;;;;;;;;;;;16.64;100.00;101396.19;5011011;28;19925;-69
2023/05/15 11:58:53;;;;;;;;;;;;;;;16.53;100.00;101396.34;5010682;28;19991;-69
2023/05/15 12:01:18;;;;;;;;;;;;;;;16.75;100.00;101398.72;5010953;28;20319;-68
2023/05/15 12:03:45;;;;;;;;;;;;;;;16.79;100.00;101400.16;4993717;28;19921;-68
2023/05/15 12:06:10;;;;;;;;;;;;;;;16.79;100.00;101400.16;4993768;28;20044;-68
2023/05/15 12:08:36;;;;;;;;;;;;;;;16.70;100.00;101403.72;4991510;28;20318;-67
2023/05/15 12:11:02;;;;;;;;;;;;;;;16.46;100.00;101402.34;4991732;28;19943;-71
2023/05/15 12:13:27;;;;;;;;;;;;;;;16.40;100.00;101397.50;5003662;28;20083;-69
2023/05/15 12:15:52;;;;;;;;;;;;;;;16.39;100.00;101400.38;4994975;28;20371;-71
2023/05/15 12:18:18;;;;;;;;;;;;;;;16.40;100.00;101400.22;5005151;28;20391;-69
2023/05/15 12:20:46;;;;;;;;;;;;;;;16.03;100.00;101404.50;4992996;28;20318;-70
2023/05/15 12:23:14;;;;;;;;;;;;;;;16.15;100.00;101404.38;5004025;28;19921;-69
2023/05/15 12:25:39;;;;;;;;;;;;;;;16.10;100.00;101412.06;4993448;28;19925;-70